Aérodrome :
LOGIN :

S'inscrire | Disclaimer

   EN    FR    IT 

 










Légende :    VFR   VFR Marginal   IFR   IFR Intensif   IFR Très Intensif
Visi : 
Plafond : 
>= 8 km
>= 3000ft
5 à 8 km
1000 à 3000 ft
1500m à 5 km
500 à 1000 ft
800 à 1500m
200 à 500 ft
< 800m
< 200 ft
Symboles :   Orages  Brouillard  Fortes neiges  Fortes précipitations  Vent > 20 kt
SIGMETs :   Divers  Orages  Givrage  Turbulence  Onde Orograph.  Cendres Volcan.







- Altitude de l'aérodrome : 7 ft
- Code IATA : XHE
- Voir les cartes d'approche


LFTH - Hyeres

DERNIER METAR :
  • 260330Z AUTO 16009KT 9999 SCT010/// BKN026/// BKN031/// ///TCU 16/14 Q1005 TEMPO RA BKN010 FEW030TCU BKN045

METARs EXPIRÉS :
  • 260300Z AUTO 14006KT 9999 SCT009/// BKN015/// BKN034/// ///TCU 16/14 Q1006 TEMPO RA BKN010 FEW030TCU BKN045
  • 260230Z AUTO 14010KT 9999 BKN009/// BKN015/// OVC052/// ///TCU 15/14 Q1006 TEMPO RA BKN010 FEW030TCU BKN045
  • 260200Z AUTO 13009KT 7000 -RA BKN011/// BKN018/// BKN025/// ///TCU 15/14 Q1006 TEMPO RA BKN010 FEW030CB BKN045
  • 260130Z AUTO 13009KT 8000 -RA BKN014/// OVC019/// ///TCU 15/14 Q1006 TEMPO RA BKN010 FEW030CB BKN045

TAF TAF LFTH
Valide du 26 à 03h jusqu'au 27 à 03h UTC


260200Z 2603/2703 13012KT CAVOK
TEMPO 2603/2606 VRB05KT 5000 RA BKN010 FEW030TCU BKN045
TEMPO 2606/2615 27010KT 9999 -RA BKN045
Pas de NOTAMs connus pour ce terrain.



MET'MAP, la Météo Aéronautique d'un coup d'oeil ! - Copyright ORBIFLY Décembre 2007 - Disclaimer

ORBIFLY MET'MAP TEAM :

Programmation & Développement : Alexandra Zaïnal
Conception & Développement : Baudouin d'Aumeries
Co-Programmation & Développement : Marc-Olivier Méhu
Soutien technique & logistique : Manuel Goepfert

Contact : metmap@orbifly.com




SOURCES & CREDITS :

   NOAA